sensor_id;sensor_type;location;lat;lon;timestamp;pressure;altitude;pressure_sealevel;temperature;humidity
75418;BME280;63997;52.112;5.420;2023-11-18T00:01:41;102477.06;;;3.76;100.00
75418;BME280;63997;52.112;5.420;2023-11-18T00:04:08;102470.16;;;3.75;100.00
75418;BME280;63997;52.112;5.420;2023-11-18T00:06:42;102471.44;;;3.72;100.00
75418;BME280;63997;52.112;5.420;2023-11-18T00:09:12;102479.09;;;3.74;100.00
75418;BME280;63997;52.112;5.420;2023-11-18T00:11:42;102473.28;;;3.72;100.00
75418;BME280;63997;52.112;5.420;2023-11-18T00:14:09;102479.09;;;3.74;100.00
75418;BME280;63997;52.112;5.420;2023-11-18T00:16:37;102470.75;;;3.77;100.00
75418;BME280;63997;52.112;5.420;2023-11-18T00:19:04;102475.31;;;3.82;100.00
75418;BME280;63997;52.112;5.420;2023-11-18T00:21:32;102476.81;;;3.78;100.00
75418;BME280;63997;52.112;5.420;2023-11-18T00:23:58;102479.44;;;3.78;100.00
75418;BME280;63997;52.112;5.420;2023-11-18T00:26:24;102482.63;;;3.80;100.00
75418;BME280;63997;52.112;5.420;2023-11-18T00:28:52;102474.50;;;3.81;100.00
75418;BME280;63997;52.112;5.420;2023-11-18T00:31:18;102469.03;;;3.83;100.00
75418;BME280;63997;52.112;5.420;2023-11-18T00:33:45;102466.84;;;3.80;100.00
75418;BME280;63997;52.112;5.420;2023-11-18T00:36:11;102463.16;;;3.81;100.00
75418;BME280;63997;52.112;5.420;2023-11-18T00:38:38;102461.56;;;3.80;100.00
75418;BME280;63997;52.112;5.420;2023-11-18T00:41:06;102457.91;;;3.81;100.00
75418;BME280;63997;52.112;5.420;2023-11-18T00:43:33;102456.91;;;3.82;100.00
75418;BME280;63997;52.112;5.420;2023-11-18T00:45:59;102457.69;;;3.82;100.00
75418;BME280;63997;52.112;5.420;2023-11-18T00:48:26;102456.31;;;3.80;100.00
75418;BME280;63997;52.112;5.420;2023-11-18T00:50:52;102468.91;;;3.78;100.00
75418;BME280;63997;52.112;5.420;2023-11-18T00:53:18;102470.75;;;3.77;100.00
75418;BME280;63997;52.112;5.420;2023-11-18T00:55:45;102474.97;;;3.78;100.00
75418;BME280;63997;52.112;5.420;2023-11-18T00:58:11;102472.34;;;3.78;100.00
75418;BME280;63997;52.112;5.420;2023-11-18T01:00:38;102470.97;;;3.76;100.00
75418;BME280;63997;52.112;5.420;2023-11-18T01:03:04;102483.78;;;3.72;100.00
75418;BME280;63997;52.112;5.420;2023-11-18T01:05:31;102488.47;;;3.70;100.00
75418;BME280;63997;52.112;5.420;2023-11-18T01:07:57;102489.50;;;3.69;100.00
75418;BME280;63997;52.112;5.420;2023-11-18T01:10:24;102486.09;;;3.68;100.00
75418;BME280;63997;52.112;5.420;2023-11-18T01:12:50;102494.56;;;3.70;100.00
75418;BME280;63997;52.112;5.420;2023-11-18T01:15:17;102480.94;;;3.74;100.00
75418;BME280;63997;52.112;5.420;2023-11-18T01:17:43;102483.31;;;3.75;100.00
75418;BME280;63997;52.112;5.420;2023-11-18T01:20:11;102487.88;;;3.80;100.00
75418;BME280;63997;52.112;5.420;2023-11-18T01:22:38;102490.63;;;3.85;100.00
75418;BME280;63997;52.112;5.420;2023-11-18T01:25:05;102496.22;;;3.88;100.00
75418;BME280;63997;52.112;5.420;2023-11-18T01:27:32;102499.97;;;3.92;100.00
75418;BME280;63997;52.112;5.420;2023-11-18T01:30:00;102482.13;;;3.94;100.00
75418;BME280;63997;52.112;5.420;2023-11-18T01:32:27;102492.97;;;3.98;100.00
75418;BME280;63997;52.112;5.420;2023-11-18T01:34:56;102490.69;;;4.02;100.00
75418;BME280;63997;52.112;5.420;2023-11-18T01:37:23;102490.56;;;4.08;100.00
75418;BME280;63997;52.112;5.420;2023-11-18T01:39:50;102492.50;;;4.13;100.00
75418;BME280;63997;52.112;5.420;2023-11-18T01:42:17;102489.41;;;4.16;100.00
75418;BME280;63997;52.112;5.420;2023-11-18T01:44:43;102484.13;;;4.16;100.00
75418;BME280;63997;52.112;5.420;2023-11-18T01:47:10;102488.59;;;4.15;100.00
75418;BME280;63997;52.112;5.420;2023-11-18T01:49:39;102478.88;;;4.16;100.00
75418;BME280;63997;52.112;5.420;2023-11-18T01:52:07;102475.66;;;4.14;100.00
75418;BME280;63997;52.112;5.420;2023-11-18T01:54:36;102477.50;;;4.13;100.00
75418;BME280;63997;52.112;5.420;2023-11-18T01:57:04;102480.91;;;4.14;100.00
75418;BME280;63997;52.112;5.420;2023-11-18T01:59:33;102478.06;;;4.15;100.00
75418;BME280;63997;52.112;5.420;2023-11-18T02:01:59;102478.06;;;4.15;100.00
75418;BME280;63997;52.112;5.420;2023-11-18T02:04:28;102483.88;;;4.17;100.00
75418;BME280;63997;52.112;5.420;2023-11-18T02:06:56;102479.19;;;4.19;100.00
75418;BME280;63997;52.112;5.420;2023-11-18T02:09:23;102468.44;;;4.21;100.00
75418;BME280;63997;52.112;5.420;2023-11-18T02:12:18;102482.94;;;4.23;100.00
75418;BME280;63997;52.112;5.420;2023-11-18T02:14:48;102487.97;;;4.25;100.00
75418;BME280;63997;52.112;5.420;2023-11-18T02:17:21;102485.34;;;4.25;100.00
75418;BME280;63997;52.112;5.420;2023-11-18T02:19:56;102487.41;;;4.23;100.00
75418;BME280;63997;52.112;5.420;2023-11-18T02:22:24;102485.81;;;4.22;100.00
75418;BME280;63997;52.112;5.420;2023-11-18T02:24:51;102481.59;;;4.21;100.00
75418;BME280;63997;52.112;5.420;2023-11-18T02:27:19;102478.47;;;4.24;100.00
75418;BME280;63997;52.112;5.420;2023-11-18T02:29:48;102491.41;;;4.25;100.00
75418;BME280;63997;52.112;5.420;2023-11-18T02:32:31;102484.63;;;4.30;100.00
75418;BME280;63997;52.112;5.420;2023-11-18T02:35:10;102488.66;;;4.32;100.00
75418;BME280;63997;52.112;5.420;2023-11-18T02:37:40;102493.91;;;4.32;100.00
75418;BME280;63997;52.112;5.420;2023-11-18T02:40:11;102478.66;;;4.34;100.00
75418;BME280;63997;52.112;5.420;2023-11-18T02:42:43;102469.97;;;4.34;100.00
75418;BME280;63997;52.112;5.420;2023-11-18T02:45:13;102472.91;;;4.37;100.00
75418;BME280;63997;52.112;5.420;2023-11-18T02:47:46;102472.69;;;4.39;100.00
75418;BME280;63997;52.112;5.420;2023-11-18T02:50:12;102467.97;;;4.41;100.00
75418;BME280;63997;52.112;5.420;2023-11-18T02:52:40;102458.00;;;4.43;100.00
75418;BME280;63997;52.112;5.420;2023-11-18T02:55:07;102451.72;;;4.44;100.00
75418;BME280;63997;52.112;5.420;2023-11-18T02:57:35;102453.31;;;4.45;100.00
75418;BME280;63997;52.112;5.420;2023-11-18T03:00:03;102445.16;;;4.46;100.00
75418;BME280;63997;52.112;5.420;2023-11-18T03:02:31;102446.75;;;4.47;100.00
75418;BME280;63997;52.112;5.420;2023-11-18T03:04:57;102446.75;;;4.47;100.00
75418;BME280;63997;52.112;5.420;2023-11-18T03:07:25;102437.81;;;4.48;100.00
75418;BME280;63997;52.112;5.420;2023-11-18T03:09:53;102436.22;;;4.47;100.00
75418;BME280;63997;52.112;5.420;2023-11-18T03:12:23;102443.56;;;4.45;100.00
75418;BME280;63997;52.112;5.420;2023-11-18T03:14:54;102441.97;;;4.44;100.00
75418;BME280;63997;52.112;5.420;2023-11-18T03:17:20;102447.69;;;4.41;100.00
75418;BME280;63997;52.112;5.420;2023-11-18T03:19:47;102449.78;;;4.39;100.00
75418;BME280;63997;52.112;5.420;2023-11-18T03:22:13;102437.66;;;4.38;100.00
75418;BME280;63997;52.112;5.420;2023-11-18T03:24:40;102440.28;;;4.38;100.00
75418;BME280;63997;52.112;5.420;2023-11-18T03:27:06;102436.88;;;4.38;100.00
75418;BME280;63997;52.112;5.420;2023-11-18T03:29:34;102427.13;;;4.38;100.00
75418;BME280;63997;52.112;5.420;2023-11-18T03:32:02;102425.84;;;4.41;100.00
75418;BME280;63997;52.112;5.420;2023-11-18T03:34:30;102433.50;;;4.42;100.00
75418;BME280;63997;52.112;5.420;2023-11-18T03:36:56;102422.75;;;4.44;100.00
75418;BME280;63997;52.112;5.420;2023-11-18T03:39:23;102424.09;;;4.46;100.00
75418;BME280;63997;52.112;5.420;2023-11-18T03:41:49;102410.66;;;4.48;100.00
75418;BME280;63997;52.112;5.420;2023-11-18T03:44:16;102412.28;;;4.49;100.00
75418;BME280;63997;52.112;5.420;2023-11-18T03:46:43;102405.72;;;4.51;100.00
75418;BME280;63997;52.112;5.420;2023-11-18T03:49:10;102398.38;;;4.54;100.00
75418;BME280;63997;52.112;5.420;2023-11-18T03:51:36;102392.09;;;4.55;100.00
75418;BME280;63997;52.112;5.420;2023-11-18T03:54:03;102386.00;;;4.54;100.00
75418;BME280;63997;52.112;5.420;2023-11-18T03:56:29;102380.25;;;4.57;100.00
75418;BME280;63997;52.112;5.420;2023-11-18T03:58:56;102380.00;;;4.59;100.00
75418;BME280;63997;52.112;5.420;2023-11-18T04:01:24;102372.69;;;4.61;100.00
75418;BME280;63997;52.112;5.420;2023-11-18T04:03:53;102375.88;;;4.63;100.00
75418;BME280;63997;52.112;5.420;2023-11-18T04:06:23;102361.66;;;4.64;100.00
75418;BME280;63997;52.112;5.420;2023-11-18T04:08:51;102354.31;;;4.66;100.00
75418;BME280;63997;52.112;5.420;2023-11-18T04:11:17;102353.50;;;4.65;100.00
75418;BME280;63997;52.112;5.420;2023-11-18T04:13:44;102349.84;;;4.66;100.00
75418;BME280;63997;52.112;5.420;2023-11-18T04:16:11;102360.38;;;4.66;100.00
75418;BME280;63997;52.112;5.420;2023-11-18T04:18:39;102365.41;;;4.68;100.00
75418;BME280;63997;52.112;5.420;2023-11-18T04:21:09;102373.31;;;4.68;100.00
75418;BME280;63997;52.112;5.420;2023-11-18T04:23:42;102363.56;;;4.68;100.00
75418;BME280;63997;52.112;5.420;2023-11-18T04:26:10;102353.81;;;4.69;100.00
75418;BME280;63997;52.112;5.420;2023-11-18T04:28:36;102339.59;;;4.70;100.00
75418;BME280;63997;52.112;5.420;2023-11-18T04:31:03;102336.75;;;4.71;100.00
75418;BME280;63997;52.112;5.420;2023-11-18T04:33:32;102342.81;;;4.72;100.00
75418;BME280;63997;52.112;5.420;2023-11-18T04:35:59;102329.38;;;4.73;100.00
75418;BME280;63997;52.112;5.420;2023-11-18T04:38:26;102332.56;;;4.75;100.00
75418;BME280;63997;52.112;5.420;2023-11-18T04:40:53;102323.06;;;4.74;100.00
75418;BME280;63997;52.112;5.420;2023-11-18T04:43:21;102322.81;;;4.76;100.00
75418;BME280;63997;52.112;5.420;2023-11-18T04:46:05;102321.81;;;4.77;100.00
75418;BME280;63997;52.112;5.420;2023-11-18T04:48:31;102316.28;;;4.78;100.00
75418;BME280;63997;52.112;5.420;2023-11-18T04:50:59;102313.66;;;4.78;100.00
75418;BME280;63997;52.112;5.420;2023-11-18T04:53:26;102302.84;;;4.80;100.00
75418;BME280;63997;52.112;5.420;2023-11-18T04:55:52;102305.25;;;4.82;100.00
75418;BME280;63997;52.112;5.420;2023-11-18T04:58:19;102306.84;;;4.83;100.00
75418;BME280;63997;52.112;5.420;2023-11-18T05:00:45;102306.03;;;4.82;100.00
75418;BME280;63997;52.112;5.420;2023-11-18T05:03:12;102312.94;;;4.83;100.00
75418;BME280;63997;52.112;5.420;2023-11-18T05:05:40;102316.09;;;4.85;100.00
75418;BME280;63997;52.112;5.420;2023-11-18T05:08:07;102317.69;;;4.86;100.00
75418;BME280;63997;52.112;5.420;2023-11-18T05:10:34;102312.41;;;4.86;100.00
75418;BME280;63997;52.112;5.420;2023-11-18T05:13:01;102319.28;;;4.87;100.00
75418;BME280;63997;52.112;5.420;2023-11-18T05:15:28;102322.50;;;4.89;100.00
75418;BME280;63997;52.112;5.420;2023-11-18T05:17:55;102314.59;;;4.89;100.00
75418;BME280;63997;52.112;5.420;2023-11-18T05:20:22;102305.63;;;4.90;100.00
75418;BME280;63997;52.112;5.420;2023-11-18T05:22:49;102298.50;;;4.91;100.00
75418;BME280;63997;52.112;5.420;2023-11-18T05:25:15;102300.34;;;4.90;100.00
75418;BME280;63997;52.112;5.420;2023-11-18T05:27:42;102287.97;;;4.91;100.00
75418;BME280;63997;52.112;5.420;2023-11-18T05:30:10;102286.13;;;4.91;100.00
75418;BME280;63997;52.112;5.420;2023-11-18T05:32:37;102285.09;;;4.92;100.00
75418;BME280;63997;52.112;5.420;2023-11-18T05:35:04;102287.72;;;4.92;100.00
75418;BME280;63997;52.112;5.420;2023-11-18T05:37:31;102295.41;;;4.94;100.00
75418;BME280;63997;52.112;5.420;2023-11-18T05:40:05;102290.94;;;4.94;100.00
75418;BME280;63997;52.112;5.420;2023-11-18T05:42:36;102299.38;;;4.96;100.00
75418;BME280;63997;52.112;5.420;2023-11-18T05:45:06;102289.88;;;4.95;100.00
75418;BME280;63997;52.112;5.420;2023-11-18T05:47:33;102286.19;;;4.96;100.00
75418;BME280;63997;52.112;5.420;2023-11-18T05:50:03;102279.88;;;4.97;100.00
75418;BME280;63997;52.112;5.420;2023-11-18T05:52:31;102283.31;;;4.98;100.00
75418;BME280;63997;52.112;5.420;2023-11-18T05:54:59;102275.97;;;5.00;100.00
75418;BME280;63997;52.112;5.420;2023-11-18T05:57:25;102273.34;;;5.00;100.00
75418;BME280;63997;52.112;5.420;2023-11-18T05:59:53;102264.13;;;5.02;100.00
75418;BME280;63997;52.112;5.420;2023-11-18T06:02:21;102257.78;;;5.03;100.00
75418;BME280;63997;52.112;5.420;2023-11-18T06:04:48;102255.16;;;5.03;100.00
75418;BME280;63997;52.112;5.420;2023-11-18T06:07:15;102257.56;;;5.05;100.00
75418;BME280;63997;52.112;5.420;2023-11-18T06:09:44;102253.09;;;5.06;100.00
75418;BME280;63997;52.112;5.420;2023-11-18T06:12:10;102254.69;;;5.07;100.00
75418;BME280;63997;52.112;5.420;2023-11-18T06:14:37;102253.63;;;5.08;100.00
75418;BME280;63997;52.112;5.420;2023-11-18T06:17:04;102245.47;;;5.09;100.00
75418;BME280;63997;52.112;5.420;2023-11-18T06:19:34;102241.00;;;5.10;100.00
75418;BME280;63997;52.112;5.420;2023-11-18T06:22:00;102237.06;;;5.12;100.00
75418;BME280;63997;52.112;5.420;2023-11-18T06:24:27;102250.81;;;5.14;100.00
75418;BME280;63997;52.112;5.420;2023-11-18T06:26:54;102254.22;;;5.15;100.00
75418;BME280;63997;52.112;5.420;2023-11-18T06:29:21;102249.53;;;5.17;100.00
75418;BME280;63997;52.112;5.420;2023-11-18T06:31:47;102240.56;;;5.18;100.00
75418;BME280;63997;52.112;5.420;2023-11-18T06:34:14;102239.50;;;5.19;100.00
75418;BME280;63997;52.112;5.420;2023-11-18T06:36:41;102235.81;;;5.20;100.00
75418;BME280;63997;52.112;5.420;2023-11-18T06:39:07;102233.19;;;5.20;100.00
75418;BME280;63997;52.112;5.420;2023-11-18T06:41:34;102240.84;;;5.21;100.00
75418;BME280;63997;52.112;5.420;2023-11-18T06:44:03;102242.69;;;5.21;100.00
75418;BME280;63997;52.112;5.420;2023-11-18T06:46:38;102242.94;;;5.19;100.00
75418;BME280;63997;52.112;5.420;2023-11-18T06:49:07;102247.16;;;5.20;100.00
75418;BME280;63997;52.112;5.420;2023-11-18T06:51:37;102245.31;;;5.21;100.00
75418;BME280;63997;52.112;5.420;2023-11-18T06:54:05;102240.06;;;5.21;100.00
75418;BME280;63997;52.112;5.420;2023-11-18T06:56:37;102245.31;;;5.21;100.00
75418;BME280;63997;52.112;5.420;2023-11-18T06:59:05;102246.94;;;5.22;100.00
75418;BME280;63997;52.112;5.420;2023-11-18T07:01:34;102249.59;;;5.22;100.00
75418;BME280;63997;52.112;5.420;2023-11-18T07:04:02;102246.94;;;5.22;100.00
75418;BME280;63997;52.112;5.420;2023-11-18T07:06:29;102241.66;;;5.22;100.00
75418;BME280;63997;52.112;5.420;2023-11-18T07:08:55;102239.81;;;5.22;100.00
75418;BME280;63997;52.112;5.420;2023-11-18T07:11:26;102239.81;;;5.22;100.00
75418;BME280;63997;52.112;5.420;2023-11-18T07:13:54;102239.03;;;5.22;100.00
75418;BME280;63997;52.112;5.420;2023-11-18T07:16:24;102244.06;;;5.23;100.00
75418;BME280;63997;52.112;5.420;2023-11-18T07:18:51;102240.38;;;5.24;100.00
75418;BME280;63997;52.112;5.420;2023-11-18T07:21:18;102244.84;;;5.24;100.00
75418;BME280;63997;52.112;5.420;2023-11-18T07:23:45;102247.22;;;5.25;100.00
75418;BME280;63997;52.112;5.420;2023-11-18T07:26:11;102245.63;;;5.24;100.00
75418;BME280;63997;52.112;5.420;2023-11-18T07:28:38;102257.53;;;5.27;100.00
75418;BME280;63997;52.112;5.420;2023-11-18T07:31:04;102251.22;;;5.28;100.00
75418;BME280;63997;52.112;5.420;2023-11-18T07:33:31;102260.72;;;5.29;100.00
75418;BME280;63997;52.112;5.420;2023-11-18T07:35:58;102271.28;;;5.29;100.00
75418;BME280;63997;52.112;5.420;2023-11-18T07:38:25;102269.44;;;5.29;100.00
75418;BME280;63997;52.112;5.420;2023-11-18T07:40:53;102290.28;;;5.31;100.00
75418;BME280;63997;52.112;5.420;2023-11-18T07:43:23;102275.81;;;5.34;100.00
75418;BME280;63997;52.112;5.420;2023-11-18T07:45:49;102270.53;;;5.34;100.00
75418;BME280;63997;52.112;5.420;2023-11-18T07:48:18;102262.38;;;5.35;100.00
75418;BME280;63997;52.112;5.420;2023-11-18T07:50:47;102255.00;;;5.37;100.00
75418;BME280;63997;52.112;5.420;2023-11-18T07:53:14;102246.03;;;5.38;100.00
75418;BME280;63997;52.112;5.420;2023-11-18T07:55:40;102249.47;;;5.39;100.00
75418;BME280;63997;52.112;5.420;2023-11-18T07:58:07;102235.47;;;5.38;100.00
75418;BME280;63997;52.112;5.420;2023-11-18T08:00:38;102233.41;;;5.40;100.00
75418;BME280;63997;52.112;5.420;2023-11-18T08:03:09;102237.88;;;5.40;100.00
75418;BME280;63997;52.112;5.420;2023-11-18T08:05:42;102229.19;;;5.39;100.00
75418;BME280;63997;52.112;5.420;2023-11-18T08:08:10;102228.91;;;5.41;100.00
75418;BME280;63997;52.112;5.420;2023-11-18T08:10:38;102224.44;;;5.41;100.00
75418;BME280;63997;52.112;5.420;2023-11-18T08:13:06;102217.31;;;5.42;100.00
75418;BME280;63997;52.112;5.420;2023-11-18T08:15:34;102215.47;;;5.42;100.00
75418;BME280;63997;52.112;5.420;2023-11-18T08:18:01;102210.19;;;5.42;100.00
75418;BME280;63997;52.112;5.420;2023-11-18T08:20:29;102205.47;;;5.44;100.00
75418;BME280;63997;52.112;5.420;2023-11-18T08:22:56;102208.91;;;5.45;100.00
75418;BME280;63997;52.112;5.420;2023-11-18T08:25:23;102203.38;;;5.46;100.00
75418;BME280;63997;52.112;5.420;2023-11-18T08:27:49;102194.16;;;5.49;100.00
75418;BME280;63997;52.112;5.420;2023-11-18T08:30:16;102203.91;;;5.48;100.00
75418;BME280;63997;52.112;5.420;2023-11-18T08:32:45;102195.50;;;5.51;100.00
75418;BME280;63997;52.112;5.420;2023-11-18T08:35:12;102176.00;;;5.52;100.00
75418;BME280;63997;52.112;5.420;2023-11-18T08:37:42;102172.84;;;5.55;100.00
75418;BME280;63997;52.112;5.420;2023-11-18T08:40:10;102172.84;;;5.55;100.00
75418;BME280;63997;52.112;5.420;2023-11-18T08:42:43;102173.94;;;5.60;100.00
75418;BME280;63997;52.112;5.420;2023-11-18T08:45:18;102165.25;;;5.64;100.00
75418;BME280;63997;52.112;5.420;2023-11-18T08:47:45;102165.56;;;5.68;100.00
75418;BME280;63997;52.112;5.420;2023-11-18T08:50:15;102172.97;;;5.71;100.00
75418;BME280;63997;52.112;5.420;2023-11-18T08:52:43;102166.13;;;5.75;100.00
75418;BME280;63997;52.112;5.420;2023-11-18T08:55:14;102165.59;;;5.78;100.00
75418;BME280;63997;52.112;5.420;2023-11-18T08:57:48;102161.97;;;5.84;100.00
75418;BME280;63997;52.112;5.420;2023-11-18T09:00:31;102151.97;;;5.86;100.00
75418;BME280;63997;52.112;5.420;2023-11-18T09:03:15;102152.03;;;5.91;100.00
75418;BME280;63997;52.112;5.420;2023-11-18T09:05:52;102147.25;;;5.93;100.00
75418;BME280;63997;52.112;5.420;2023-11-18T09:08:32;102155.22;;;5.98;100.00
75418;BME280;63997;52.112;5.420;2023-11-18T09:11:06;102133.03;;;5.99;100.00
75418;BME280;63997;52.112;5.420;2023-11-18T09:13:33;102133.59;;;6.01;100.00
75418;BME280;63997;52.112;5.420;2023-11-18T09:16:03;102115.91;;;6.02;100.00
75418;BME280;63997;52.112;5.420;2023-11-18T09:18:30;102115.66;;;6.03;100.00
75418;BME280;63997;52.112;5.420;2023-11-18T09:20:59;102125.94;;;6.05;100.00
75418;BME280;63997;52.112;5.420;2023-11-18T09:23:29;102108.81;;;6.07;100.00
75418;BME280;63997;52.112;5.420;2023-11-18T09:25:56;102107.75;;;6.08;100.00
75418;BME280;63997;52.112;5.420;2023-11-18T09:28:27;102103.25;;;6.09;100.00
75418;BME280;63997;52.112;5.420;2023-11-18T09:30:56;102087.41;;;6.09;100.00
75418;BME280;63997;52.112;5.420;2023-11-18T09:33:25;102085.31;;;6.11;100.00
75418;BME280;63997;52.112;5.420;2023-11-18T09:35:55;102091.38;;;6.12;100.00
75418;BME280;63997;52.112;5.420;2023-11-18T09:38:29;102088.72;;;6.12;100.00
75418;BME280;63997;52.112;5.420;2023-11-18T09:40:57;102070.25;;;6.12;100.00
75418;BME280;63997;52.112;5.420;2023-11-18T09:43:24;102057.03;;;6.12;100.00
75418;BME280;63997;52.112;5.420;2023-11-18T09:45:56;102047.53;;;6.10;100.00
75418;BME280;63997;52.112;5.420;2023-11-18T09:48:29;102036.97;;;6.10;100.00
75418;BME280;63997;52.112;5.420;2023-11-18T09:50:57;102047.53;;;6.10;100.00
75418;BME280;63997;52.112;5.420;2023-11-18T09:53:26;102051.75;;;6.12;100.00
75418;BME280;63997;52.112;5.420;2023-11-18T09:56:03;102045.44;;;6.13;100.00
75418;BME280;63997;52.112;5.420;2023-11-18T09:58:40;102056.00;;;6.13;100.00
75418;BME280;63997;52.112;5.420;2023-11-18T10:01:16;102054.16;;;6.13;100.00
75418;BME280;63997;52.112;5.420;2023-11-18T10:03:45;102055.75;;;6.14;100.00
75418;BME280;63997;52.112;5.420;2023-11-18T10:06:13;102054.69;;;6.15;100.00
75418;BME280;63997;52.112;5.420;2023-11-18T10:08:43;102057.06;;;6.17;100.00
75418;BME280;63997;52.112;5.420;2023-11-18T10:11:12;102057.84;;;6.17;100.00
75418;BME280;63997;52.112;5.420;2023-11-18T10:13:39;102036.47;;;6.19;100.00
75418;BME280;63997;52.112;5.420;2023-11-18T10:16:08;102035.69;;;6.18;100.00
75418;BME280;63997;52.112;5.420;2023-11-18T10:18:34;102040.19;;;6.18;100.00
75418;BME280;63997;52.112;5.420;2023-11-18T10:21:03;102039.13;;;6.19;100.00
75418;BME280;63997;52.112;5.420;2023-11-18T10:23:37;102033.84;;;6.19;100.00
75418;BME280;63997;52.112;5.420;2023-11-18T10:26:04;102039.66;;;6.21;100.00
75418;BME280;63997;52.112;5.420;2023-11-18T10:28:35;102041.00;;;6.23;100.00
75418;BME280;63997;52.112;5.420;2023-11-18T10:31:05;102031.22;;;6.24;100.00
75418;BME280;63997;52.112;5.420;2023-11-18T10:33:39;102045.22;;;6.24;100.00
75418;BME280;63997;52.112;5.420;2023-11-18T10:36:19;102037.03;;;6.26;100.00
75418;BME280;63997;52.112;5.420;2023-11-18T10:38:50;102020.91;;;6.27;100.00
75418;BME280;63997;52.112;5.420;2023-11-18T10:41:22;102012.75;;;6.29;100.00
75418;BME280;63997;52.112;5.420;2023-11-18T10:44:04;102009.03;;;6.30;100.00
75418;BME280;63997;52.112;5.420;2023-11-18T10:46:31;101998.47;;;6.30;100.00
75418;BME280;63997;52.112;5.420;2023-11-18T10:48:58;101998.22;;;6.31;100.00
75418;BME280;63997;52.112;5.420;2023-11-18T10:51:24;101989.22;;;6.32;100.00
75418;BME280;63997;52.112;5.420;2023-11-18T10:53:53;101995.06;;;6.34;100.00
75418;BME280;63997;52.112;5.420;2023-11-18T10:56:27;101990.03;;;6.38;100.00
75418;BME280;63997;52.112;5.420;2023-11-18T10:59:05;101979.47;;;6.38;100.00
75418;BME280;63997;52.112;5.420;2023-11-18T11:01:34;101969.94;;;6.37;100.00
75418;BME280;63997;52.112;5.420;2023-11-18T11:04:05;101969.69;;;6.39;100.00
75418;BME280;63997;52.112;5.420;2023-11-18T11:06:32;101965.19;;;6.39;100.00
75418;BME280;63997;52.112;5.420;2023-11-18T11:08:59;101972.06;;;6.40;100.00
75418;BME280;63997;52.112;5.420;2023-11-18T11:11:39;101964.66;;;6.42;100.00
75418;BME280;63997;52.112;5.420;2023-11-18T11:14:08;101970.75;;;6.43;100.00
75418;BME280;63997;52.112;5.420;2023-11-18T11:16:41;101964.41;;;6.44;100.00
75418;BME280;63997;52.112;5.420;2023-11-18T11:19:24;101954.63;;;6.44;100.00
75418;BME280;63997;52.112;5.420;2023-11-18T11:22:00;101923.69;;;6.45;100.00
75418;BME280;63997;52.112;5.420;2023-11-18T11:24:40;101897.28;;;6.45;100.00
75418;BME280;63997;52.112;5.420;2023-11-18T11:27:25;101884.63;;;6.47;100.00
75418;BME280;63997;52.112;5.420;2023-11-18T11:30:06;101867.69;;;6.48;100.00
75418;BME280;63997;52.112;5.420;2023-11-18T11:32:51;101842.06;;;6.48;100.00
75418;BME280;63997;52.112;5.420;2023-11-18T11:35:30;101830.97;;;6.51;100.00
75418;BME280;63997;52.112;5.420;2023-11-18T11:38:00;101835.72;;;6.54;100.00
75418;BME280;63997;52.112;5.420;2023-11-18T11:40:31;101834.66;;;6.55;100.00
75418;BME280;63997;52.112;5.420;2023-11-18T11:43:00;101833.34;;;6.58;100.00
75418;BME280;63997;52.112;5.420;2023-11-18T11:45:27;101825.13;;;6.59;100.00
75418;BME280;63997;52.112;5.420;2023-11-18T11:47:59;101824.63;;;6.62;100.00
75418;BME280;63997;52.112;5.420;2023-11-18T11:50:54;101831.72;;;6.67;100.00
75418;BME280;63997;52.112;5.420;2023-11-18T11:53:25;101815.59;;;6.69;100.00
75418;BME280;63997;52.112;5.420;2023-11-18T11:55:53;101805.56;;;6.71;100.00
75418;BME280;63997;52.112;5.420;2023-11-18T11:58:33;101778.03;;;6.72;100.00
75418;BME280;63997;52.112;5.420;2023-11-18T12:01:01;101772.25;;;6.75;100.00
75418;BME280;63997;52.112;5.420;2023-11-18T12:03:27;101769.03;;;6.78;100.00
75418;BME280;63997;52.112;5.420;2023-11-18T12:06:04;101778.81;;;6.82;100.00
75418;BME280;63997;52.112;5.420;2023-11-18T12:08:41;101771.38;;;6.84;100.00
75418;BME280;63997;52.112;5.420;2023-11-18T12:11:08;101748.91;;;6.87;100.00
75418;BME280;63997;52.112;5.420;2023-11-18T12:13:37;101748.34;;;6.90;100.00
75418;BME280;63997;52.112;5.420;2023-11-18T12:16:06;101733.53;;;6.94;100.00
75418;BME280;63997;52.112;5.420;2023-11-18T12:18:36;101733.53;;;6.99;100.00
75418;BME280;63997;52.112;5.420;2023-11-18T12:21:03;101730.34;;;7.02;100.00
75418;BME280;63997;52.112;5.420;2023-11-18T12:23:30;101727.13;;;7.05;100.00
75418;BME280;63997;52.112;5.420;2023-11-18T12:26:00;101723.97;;;7.08;100.00
75418;BME280;63997;52.112;5.420;2023-11-18T12:28:32;101711.53;;;7.09;100.00
75418;BME280;63997;52.112;5.420;2023-11-18T12:31:08;101700.66;;;7.10;100.00
75418;BME280;63997;52.112;5.420;2023-11-18T12:39:44;101672.06;;;7.12;100.00
75418;BME280;63997;52.112;5.420;2023-11-18T12:43:22;101670.47;;;7.16;100.00
75418;BME280;63997;52.112;5.420;2023-11-18T12:48:27;101664.63;;;7.20;100.00
75418;BME280;63997;52.112;5.420;2023-11-18T12:50:59;101656.69;;;7.20;100.00
75418;BME280;63997;52.112;5.420;2023-11-18T12:53:26;101668.84;;;7.21;100.00
75418;BME280;63997;52.112;5.420;2023-11-18T12:55:54;101625.47;;;7.22;100.00
75418;BME280;63997;52.112;5.420;2023-11-18T12:58:22;101577.84;;;7.22;100.00
75418;BME280;63997;52.112;5.420;2023-11-18T13:00:49;101536.31;;;7.22;100.00
75418;BME280;63997;52.112;5.420;2023-11-18T13:03:16;101527.59;;;7.22;100.00
75418;BME280;63997;52.112;5.420;2023-11-18T13:05:44;101535.50;;;7.22;100.00
75418;BME280;63997;52.112;5.420;2023-11-18T13:08:12;101541.31;;;7.24;100.00
75418;BME280;63997;52.112;5.420;2023-11-18T13:10:41;101537.63;;;7.25;100.00